sensor_id;sensor_type;location;lat;lon;timestamp;P1;durP1;ratioP1;P2;durP2;ratioP2
38717;SDS011;24468;52.128;9.278;2024-01-30T00:01:43;13.05;;;9.30;;
38717;SDS011;24468;52.128;9.278;2024-01-30T00:04:08;9.82;;;8.20;;
38717;SDS011;24468;52.128;9.278;2024-01-30T00:06:34;11.05;;;8.75;;
38717;SDS011;24468;52.128;9.278;2024-01-30T00:08:59;12.27;;;9.80;;
38717;SDS011;24468;52.128;9.278;2024-01-30T00:11:25;11.52;;;9.38;;
38717;SDS011;24468;52.128;9.278;2024-01-30T00:13:51;13.55;;;9.45;;
38717;SDS011;24468;52.128;9.278;2024-01-30T00:16:20;14.20;;;10.75;;
38717;SDS011;24468;52.128;9.278;2024-01-30T00:18:52;14.40;;;9.82;;
38717;SDS011;24468;52.128;9.278;2024-01-30T00:21:19;10.48;;;8.57;;
38717;SDS011;24468;52.128;9.278;2024-01-30T00:23:46;11.65;;;9.15;;
38717;SDS011;24468;52.128;9.278;2024-01-30T00:26:12;13.38;;;9.20;;
38717;SDS011;24468;52.128;9.278;2024-01-30T00:28:39;11.82;;;8.63;;
38717;SDS011;24468;52.128;9.278;2024-01-30T00:31:06;11.45;;;8.15;;
38717;SDS011;24468;52.128;9.278;2024-01-30T00:33:31;17.85;;;10.10;;
38717;SDS011;24468;52.128;9.278;2024-01-30T00:35:57;12.40;;;9.70;;
38717;SDS011;24468;52.128;9.278;2024-01-30T00:38:22;12.27;;;9.18;;
38717;SDS011;24468;52.128;9.278;2024-01-30T00:40:48;21.63;;;9.05;;
38717;SDS011;24468;52.128;9.278;2024-01-30T00:43:14;12.32;;;9.80;;
38717;SDS011;24468;52.128;9.278;2024-01-30T00:45:40;14.25;;;9.32;;
38717;SDS011;24468;52.128;9.278;2024-01-30T00:48:06;13.77;;;9.02;;
38717;SDS011;24468;52.128;9.278;2024-01-30T00:50:32;11.95;;;8.88;;
38717;SDS011;24468;52.128;9.278;2024-01-30T00:52:57;11.43;;;9.02;;
38717;SDS011;24468;52.128;9.278;2024-01-30T00:55:23;11.77;;;9.07;;
38717;SDS011;24468;52.128;9.278;2024-01-30T00:57:48;12.07;;;9.55;;
38717;SDS011;24468;52.128;9.278;2024-01-30T01:00:14;14.63;;;9.05;;
38717;SDS011;24468;52.128;9.278;2024-01-30T01:02:42;13.00;;;8.88;;
38717;SDS011;24468;52.128;9.278;2024-01-30T01:05:08;12.65;;;10.25;;
38717;SDS011;24468;52.128;9.278;2024-01-30T01:07:33;12.20;;;9.80;;
38717;SDS011;24468;52.128;9.278;2024-01-30T01:09:59;12.10;;;9.30;;
38717;SDS011;24468;52.128;9.278;2024-01-30T01:12:25;16.85;;;9.68;;
38717;SDS011;24468;52.128;9.278;2024-01-30T01:14:50;12.77;;;9.35;;
38717;SDS011;24468;52.128;9.278;2024-01-30T01:17:16;13.90;;;9.40;;
38717;SDS011;24468;52.128;9.278;2024-01-30T01:19:43;15.02;;;9.98;;
38717;SDS011;24468;52.128;9.278;2024-01-30T01:22:09;14.73;;;10.07;;
38717;SDS011;24468;52.128;9.278;2024-01-30T01:24:35;11.65;;;9.43;;
38717;SDS011;24468;52.128;9.278;2024-01-30T01:27:01;13.40;;;9.90;;
38717;SDS011;24468;52.128;9.278;2024-01-30T01:29:27;11.30;;;9.13;;
38717;SDS011;24468;52.128;9.278;2024-01-30T01:31:57;14.73;;;8.93;;
38717;SDS011;24468;52.128;9.278;2024-01-30T01:34:23;12.20;;;9.02;;
38717;SDS011;24468;52.128;9.278;2024-01-30T01:36:49;12.65;;;8.60;;
38717;SDS011;24468;52.128;9.278;2024-01-30T01:39:16;11.13;;;8.90;;
38717;SDS011;24468;52.128;9.278;2024-01-30T01:41:42;11.50;;;9.60;;
38717;SDS011;24468;52.128;9.278;2024-01-30T01:44:08;11.15;;;9.18;;
38717;SDS011;24468;52.128;9.278;2024-01-30T01:46:34;15.18;;;10.20;;
38717;SDS011;24468;52.128;9.278;2024-01-30T01:49:00;13.57;;;9.40;;
38717;SDS011;24468;52.128;9.278;2024-01-30T01:51:28;12.15;;;9.57;;
38717;SDS011;24468;52.128;9.278;2024-01-30T01:53:56;12.23;;;9.25;;
38717;SDS011;24468;52.128;9.278;2024-01-30T01:56:23;12.43;;;8.77;;
38717;SDS011;24468;52.128;9.278;2024-01-30T01:58:49;10.75;;;8.30;;
38717;SDS011;24468;52.128;9.278;2024-01-30T02:01:16;13.20;;;8.57;;
38717;SDS011;24468;52.128;9.278;2024-01-30T02:03:45;12.05;;;8.60;;
38717;SDS011;24468;52.128;9.278;2024-01-30T02:06:12;10.55;;;8.45;;
38717;SDS011;24468;52.128;9.278;2024-01-30T02:08:39;12.02;;;9.13;;
38717;SDS011;24468;52.128;9.278;2024-01-30T02:11:05;16.23;;;10.45;;
38717;SDS011;24468;52.128;9.278;2024-01-30T02:13:31;12.43;;;9.52;;
38717;SDS011;24468;52.128;9.278;2024-01-30T02:15:57;13.43;;;9.88;;
38717;SDS011;24468;52.128;9.278;2024-01-30T02:18:22;15.80;;;9.48;;
38717;SDS011;24468;52.128;9.278;2024-01-30T02:20:48;13.02;;;8.98;;
38717;SDS011;24468;52.128;9.278;2024-01-30T02:23:15;13.82;;;9.63;;
38717;SDS011;24468;52.128;9.278;2024-01-30T02:25:41;14.18;;;9.38;;
38717;SDS011;24468;52.128;9.278;2024-01-30T02:28:10;11.50;;;8.98;;
38717;SDS011;24468;52.128;9.278;2024-01-30T02:30:39;9.65;;;8.02;;
38717;SDS011;24468;52.128;9.278;2024-01-30T02:33:05;9.82;;;7.47;;
38717;SDS011;24468;52.128;9.278;2024-01-30T02:35:31;8.35;;;7.35;;
38717;SDS011;24468;52.128;9.278;2024-01-30T02:37:58;11.15;;;8.20;;
38717;SDS011;24468;52.128;9.278;2024-01-30T02:40:24;10.10;;;6.93;;
38717;SDS011;24468;52.128;9.278;2024-01-30T02:42:49;8.45;;;6.95;;
38717;SDS011;24468;52.128;9.278;2024-01-30T02:45:15;13.38;;;9.35;;
38717;SDS011;24468;52.128;9.278;2024-01-30T02:47:40;9.18;;;7.43;;
38717;SDS011;24468;52.128;9.278;2024-01-30T02:50:06;11.65;;;8.52;;
38717;SDS011;24468;52.128;9.278;2024-01-30T02:52:32;12.00;;;6.25;;
38717;SDS011;24468;52.128;9.278;2024-01-30T02:54:57;10.85;;;7.97;;
38717;SDS011;24468;52.128;9.278;2024-01-30T02:57:23;12.00;;;8.55;;
38717;SDS011;24468;52.128;9.278;2024-01-30T02:59:48;12.10;;;8.25;;
38717;SDS011;24468;52.128;9.278;2024-01-30T03:02:14;13.27;;;8.90;;
38717;SDS011;24468;52.128;9.278;2024-01-30T03:04:43;10.52;;;9.18;;
38717;SDS011;24468;52.128;9.278;2024-01-30T03:07:08;15.05;;;9.55;;
38717;SDS011;24468;52.128;9.278;2024-01-30T03:09:34;12.13;;;9.20;;
38717;SDS011;24468;52.128;9.278;2024-01-30T03:12:01;11.93;;;8.68;;
38717;SDS011;24468;52.128;9.278;2024-01-30T03:14:29;12.10;;;9.25;;
38717;SDS011;24468;52.128;9.278;2024-01-30T03:16:56;14.75;;;10.35;;
38717;SDS011;24468;52.128;9.278;2024-01-30T03:19:23;12.43;;;9.48;;
38717;SDS011;24468;52.128;9.278;2024-01-30T03:21:48;16.77;;;10.75;;
38717;SDS011;24468;52.128;9.278;2024-01-30T03:24:14;12.55;;;9.40;;
38717;SDS011;24468;52.128;9.278;2024-01-30T03:26:40;15.32;;;9.70;;
38717;SDS011;24468;52.128;9.278;2024-01-30T03:29:05;14.35;;;10.40;;
38717;SDS011;24468;52.128;9.278;2024-01-30T03:31:31;12.13;;;10.30;;
38717;SDS011;24468;52.128;9.278;2024-01-30T03:33:57;13.85;;;10.75;;
38717;SDS011;24468;52.128;9.278;2024-01-30T03:36:23;11.77;;;9.82;;
38717;SDS011;24468;52.128;9.278;2024-01-30T03:38:48;14.85;;;10.18;;
38717;SDS011;24468;52.128;9.278;2024-01-30T03:41:14;13.90;;;9.23;;
38717;SDS011;24468;52.128;9.278;2024-01-30T03:43:40;11.32;;;9.52;;
38717;SDS011;24468;52.128;9.278;2024-01-30T03:46:06;11.32;;;8.13;;
38717;SDS011;24468;52.128;9.278;2024-01-30T03:48:31;12.40;;;9.30;;
38717;SDS011;24468;52.128;9.278;2024-01-30T03:50:57;11.02;;;9.35;;
38717;SDS011;24468;52.128;9.278;2024-01-30T03:53:22;13.80;;;9.45;;
38717;SDS011;24468;52.128;9.278;2024-01-30T03:55:48;12.43;;;9.48;;
38717;SDS011;24468;52.128;9.278;2024-01-30T03:58:13;13.70;;;9.40;;
38717;SDS011;24468;52.128;9.278;2024-01-30T04:00:39;14.07;;;10.27;;
38717;SDS011;24468;52.128;9.278;2024-01-30T04:03:05;14.73;;;9.40;;
38717;SDS011;24468;52.128;9.278;2024-01-30T04:05:31;14.15;;;10.13;;
38717;SDS011;24468;52.128;9.278;2024-01-30T04:07:57;13.35;;;10.30;;
38717;SDS011;24468;52.128;9.278;2024-01-30T04:10:23;13.07;;;9.70;;
38717;SDS011;24468;52.128;9.278;2024-01-30T04:12:49;13.63;;;10.90;;
38717;SDS011;24468;52.128;9.278;2024-01-30T04:15:16;12.93;;;9.02;;
38717;SDS011;24468;52.128;9.278;2024-01-30T04:17:43;15.18;;;10.55;;
38717;SDS011;24468;52.128;9.278;2024-01-30T04:20:18;12.55;;;10.02;;
38717;SDS011;24468;52.128;9.278;2024-01-30T04:22:44;17.17;;;10.77;;
38717;SDS011;24468;52.128;9.278;2024-01-30T04:25:10;11.38;;;9.63;;
38717;SDS011;24468;52.128;9.278;2024-01-30T04:27:37;16.67;;;9.95;;
38717;SDS011;24468;52.128;9.278;2024-01-30T04:30:03;14.07;;;9.43;;
38717;SDS011;24468;52.128;9.278;2024-01-30T04:32:29;12.68;;;8.63;;
38717;SDS011;24468;52.128;9.278;2024-01-30T04:34:54;11.00;;;8.27;;
38717;SDS011;24468;52.128;9.278;2024-01-30T04:37:20;13.63;;;9.65;;
38717;SDS011;24468;52.128;9.278;2024-01-30T04:39:46;12.75;;;9.48;;
38717;SDS011;24468;52.128;9.278;2024-01-30T04:42:11;16.83;;;9.93;;
38717;SDS011;24468;52.128;9.278;2024-01-30T04:44:37;9.10;;;7.93;;
38717;SDS011;24468;52.128;9.278;2024-01-30T04:47:02;13.27;;;8.80;;
38717;SDS011;24468;52.128;9.278;2024-01-30T04:49:30;14.82;;;9.73;;
38717;SDS011;24468;52.128;9.278;2024-01-30T04:51:55;17.95;;;10.05;;
38717;SDS011;24468;52.128;9.278;2024-01-30T04:54:21;14.02;;;9.60;;
38717;SDS011;24468;52.128;9.278;2024-01-30T04:56:47;14.13;;;9.85;;
38717;SDS011;24468;52.128;9.278;2024-01-30T04:59:12;10.38;;;8.75;;
38717;SDS011;24468;52.128;9.278;2024-01-30T05:01:38;12.82;;;8.95;;
38717;SDS011;24468;52.128;9.278;2024-01-30T05:04:03;11.18;;;8.57;;
38717;SDS011;24468;52.128;9.278;2024-01-30T05:06:32;11.68;;;9.13;;
38717;SDS011;24468;52.128;9.278;2024-01-30T05:08:57;13.00;;;9.50;;
38717;SDS011;24468;52.128;9.278;2024-01-30T05:11:23;14.45;;;10.05;;
38717;SDS011;24468;52.128;9.278;2024-01-30T05:13:48;13.98;;;9.63;;
38717;SDS011;24468;52.128;9.278;2024-01-30T05:16:14;11.30;;;9.15;;
38717;SDS011;24468;52.128;9.278;2024-01-30T05:18:39;16.27;;;9.45;;
38717;SDS011;24468;52.128;9.278;2024-01-30T05:21:05;12.25;;;9.38;;
38717;SDS011;24468;52.128;9.278;2024-01-30T05:23:30;12.13;;;9.80;;
38717;SDS011;24468;52.128;9.278;2024-01-30T05:25:56;12.43;;;8.90;;
38717;SDS011;24468;52.128;9.278;2024-01-30T05:28:22;12.95;;;8.98;;
38717;SDS011;24468;52.128;9.278;2024-01-30T05:30:47;13.43;;;10.05;;
38717;SDS011;24468;52.128;9.278;2024-01-30T05:33:13;15.30;;;9.48;;
38717;SDS011;24468;52.128;9.278;2024-01-30T05:35:38;11.48;;;9.50;;
38717;SDS011;24468;52.128;9.278;2024-01-30T05:38:04;13.38;;;9.00;;
38717;SDS011;24468;52.128;9.278;2024-01-30T05:40:33;12.77;;;9.73;;
38717;SDS011;24468;52.128;9.278;2024-01-30T05:42:58;12.40;;;8.20;;
38717;SDS011;24468;52.128;9.278;2024-01-30T05:45:26;11.70;;;9.52;;
38717;SDS011;24468;52.128;9.278;2024-01-30T05:47:52;12.13;;;9.63;;
38717;SDS011;24468;52.128;9.278;2024-01-30T05:50:19;12.05;;;10.10;;
38717;SDS011;24468;52.128;9.278;2024-01-30T05:52:45;11.13;;;9.25;;
38717;SDS011;24468;52.128;9.278;2024-01-30T05:55:11;15.63;;;9.73;;
38717;SDS011;24468;52.128;9.278;2024-01-30T05:57:37;11.93;;;9.38;;
38717;SDS011;24468;52.128;9.278;2024-01-30T06:00:04;16.45;;;9.00;;
38717;SDS011;24468;52.128;9.278;2024-01-30T06:02:31;13.73;;;8.93;;
38717;SDS011;24468;52.128;9.278;2024-01-30T06:04:56;14.55;;;10.70;;
38717;SDS011;24468;52.128;9.278;2024-01-30T06:07:22;12.52;;;9.57;;
38717;SDS011;24468;52.128;9.278;2024-01-30T06:09:47;17.38;;;9.90;;
38717;SDS011;24468;52.128;9.278;2024-01-30T06:12:13;15.60;;;10.48;;
38717;SDS011;24468;52.128;9.278;2024-01-30T06:14:39;12.68;;;9.35;;
38717;SDS011;24468;52.128;9.278;2024-01-30T06:17:04;13.35;;;10.27;;
38717;SDS011;24468;52.128;9.278;2024-01-30T06:19:30;13.65;;;10.23;;
38717;SDS011;24468;52.128;9.278;2024-01-30T06:21:55;15.63;;;10.35;;
38717;SDS011;24468;52.128;9.278;2024-01-30T06:24:24;17.08;;;10.15;;
38717;SDS011;24468;52.128;9.278;2024-01-30T06:26:49;14.48;;;9.82;;
38717;SDS011;24468;52.128;9.278;2024-01-30T06:29:15;15.30;;;9.63;;
38717;SDS011;24468;52.128;9.278;2024-01-30T06:31:41;12.70;;;9.68;;
38717;SDS011;24468;52.128;9.278;2024-01-30T06:34:08;14.00;;;10.50;;
38717;SDS011;24468;52.128;9.278;2024-01-30T06:36:34;13.95;;;10.00;;
38717;SDS011;24468;52.128;9.278;2024-01-30T06:39:00;14.00;;;9.85;;
38717;SDS011;24468;52.128;9.278;2024-01-30T06:41:27;11.90;;;8.98;;
38717;SDS011;24468;52.128;9.278;2024-01-30T06:43:52;15.10;;;10.45;;
38717;SDS011;24468;52.128;9.278;2024-01-30T06:46:18;12.80;;;10.07;;
38717;SDS011;24468;52.128;9.278;2024-01-30T06:48:43;14.45;;;11.43;;
38717;SDS011;24468;52.128;9.278;2024-01-30T06:51:10;12.68;;;10.20;;
38717;SDS011;24468;52.128;9.278;2024-01-30T06:53:36;13.65;;;11.23;;
38717;SDS011;24468;52.128;9.278;2024-01-30T06:56:02;16.88;;;10.57;;
38717;SDS011;24468;52.128;9.278;2024-01-30T06:58:28;13.02;;;9.77;;
38717;SDS011;24468;52.128;9.278;2024-01-30T07:00:54;13.98;;;10.48;;
38717;SDS011;24468;52.128;9.278;2024-01-30T07:03:20;14.70;;;9.57;;
38717;SDS011;24468;52.128;9.278;2024-01-30T07:05:45;18.55;;;9.63;;
38717;SDS011;24468;52.128;9.278;2024-01-30T07:08:11;12.95;;;9.55;;
38717;SDS011;24468;52.128;9.278;2024-01-30T07:10:36;13.77;;;9.55;;
38717;SDS011;24468;52.128;9.278;2024-01-30T07:13:02;13.75;;;10.40;;
38717;SDS011;24468;52.128;9.278;2024-01-30T07:15:30;16.67;;;10.68;;
38717;SDS011;24468;52.128;9.278;2024-01-30T07:17:55;13.07;;;10.20;;
38717;SDS011;24468;52.128;9.278;2024-01-30T07:20:21;16.52;;;10.63;;
38717;SDS011;24468;52.128;9.278;2024-01-30T07:22:46;16.27;;;11.00;;
38717;SDS011;24468;52.128;9.278;2024-01-30T07:25:12;12.90;;;10.73;;
38717;SDS011;24468;52.128;9.278;2024-01-30T07:27:38;16.00;;;11.00;;
38717;SDS011;24468;52.128;9.278;2024-01-30T07:30:04;14.45;;;11.00;;
38717;SDS011;24468;52.128;9.278;2024-01-30T07:32:30;12.05;;;8.90;;
38717;SDS011;24468;52.128;9.278;2024-01-30T07:34:56;12.77;;;9.40;;
38717;SDS011;24468;52.128;9.278;2024-01-30T07:37:22;14.45;;;10.48;;
38717;SDS011;24468;52.128;9.278;2024-01-30T07:39:48;14.27;;;9.80;;
38717;SDS011;24468;52.128;9.278;2024-01-30T07:42:13;16.88;;;10.35;;
38717;SDS011;24468;52.128;9.278;2024-01-30T07:44:39;13.77;;;9.60;;
38717;SDS011;24468;52.128;9.278;2024-01-30T07:47:04;13.63;;;9.82;;
38717;SDS011;24468;52.128;9.278;2024-01-30T07:49:30;12.98;;;10.48;;
38717;SDS011;24468;52.128;9.278;2024-01-30T07:51:57;13.75;;;9.35;;
38717;SDS011;24468;52.128;9.278;2024-01-30T07:54:22;12.90;;;9.57;;
38717;SDS011;24468;52.128;9.278;2024-01-30T07:56:48;13.38;;;10.02;;
38717;SDS011;24468;52.128;9.278;2024-01-30T07:59:14;14.15;;;10.02;;
38717;SDS011;24468;52.128;9.278;2024-01-30T08:01:40;14.00;;;9.13;;
38717;SDS011;24468;52.128;9.278;2024-01-30T08:04:06;14.05;;;9.98;;
38717;SDS011;24468;52.128;9.278;2024-01-30T08:06:32;12.57;;;9.70;;
38717;SDS011;24468;52.128;9.278;2024-01-30T08:08:58;17.85;;;10.90;;
38717;SDS011;24468;52.128;9.278;2024-01-30T08:11:24;11.20;;;9.35;;
38717;SDS011;24468;52.128;9.278;2024-01-30T08:13:52;12.77;;;9.25;;
38717;SDS011;24468;52.128;9.278;2024-01-30T08:16:18;10.60;;;8.20;;
38717;SDS011;24468;52.128;9.278;2024-01-30T08:18:43;12.35;;;8.98;;
38717;SDS011;24468;52.128;9.278;2024-01-30T08:21:09;15.48;;;9.90;;
38717;SDS011;24468;52.128;9.278;2024-01-30T08:23:34;13.88;;;10.88;;
38717;SDS011;24468;52.128;9.278;2024-01-30T08:26:00;14.73;;;9.70;;
38717;SDS011;24468;52.128;9.278;2024-01-30T08:28:26;15.68;;;10.18;;
38717;SDS011;24468;52.128;9.278;2024-01-30T08:30:52;12.93;;;9.00;;
38717;SDS011;24468;52.128;9.278;2024-01-30T08:33:17;12.27;;;9.63;;
38717;SDS011;24468;52.128;9.278;2024-01-30T08:35:43;16.42;;;10.15;;
38717;SDS011;24468;52.128;9.278;2024-01-30T08:38:08;13.38;;;9.50;;
38717;SDS011;24468;52.128;9.278;2024-01-30T08:40:34;13.60;;;9.85;;
38717;SDS011;24468;52.128;9.278;2024-01-30T08:43:00;14.05;;;9.88;;
38717;SDS011;24468;52.128;9.278;2024-01-30T08:45:26;13.65;;;10.63;;
38717;SDS011;24468;52.128;9.278;2024-01-30T08:47:51;14.75;;;9.75;;
38717;SDS011;24468;52.128;9.278;2024-01-30T08:50:17;11.30;;;9.23;;
38717;SDS011;24468;52.128;9.278;2024-01-30T08:52:42;17.25;;;10.77;;
38717;SDS011;24468;52.128;9.278;2024-01-30T08:55:08;12.77;;;9.73;;
38717;SDS011;24468;52.128;9.278;2024-01-30T08:57:34;14.90;;;9.50;;
38717;SDS011;24468;52.128;9.278;2024-01-30T08:59:59;11.68;;;8.13;;
38717;SDS011;24468;52.128;9.278;2024-01-30T09:02:27;15.43;;;9.15;;
38717;SDS011;24468;52.128;9.278;2024-01-30T09:04:52;13.15;;;8.70;;
38717;SDS011;24468;52.128;9.278;2024-01-30T09:07:18;14.38;;;9.13;;
38717;SDS011;24468;52.128;9.278;2024-01-30T09:09:43;10.85;;;8.85;;
38717;SDS011;24468;52.128;9.278;2024-01-30T09:12:10;13.40;;;9.48;;
38717;SDS011;24468;52.128;9.278;2024-01-30T09:14:37;14.07;;;8.82;;
38717;SDS011;24468;52.128;9.278;2024-01-30T09:17:03;11.60;;;9.00;;
38717;SDS011;24468;52.128;9.278;2024-01-30T09:19:30;17.30;;;8.98;;
38717;SDS011;24468;52.128;9.278;2024-01-30T09:21:56;13.75;;;8.65;;
38717;SDS011;24468;52.128;9.278;2024-01-30T09:24:21;12.30;;;8.73;;
38717;SDS011;24468;52.128;9.278;2024-01-30T09:26:47;9.95;;;8.70;;
38717;SDS011;24468;52.128;9.278;2024-01-30T09:29:12;14.75;;;9.25;;
38717;SDS011;24468;52.128;9.278;2024-01-30T09:31:38;18.83;;;8.70;;
38717;SDS011;24468;52.128;9.278;2024-01-30T09:34:04;13.20;;;9.68;;
38717;SDS011;24468;52.128;9.278;2024-01-30T09:36:29;14.15;;;9.95;;
38717;SDS011;24468;52.128;9.278;2024-01-30T09:38:55;13.43;;;8.55;;
38717;SDS011;24468;52.128;9.278;2024-01-30T09:41:20;16.60;;;9.85;;
38717;SDS011;24468;52.128;9.278;2024-01-30T09:43:50;13.52;;;8.43;;
38717;SDS011;24468;52.128;9.278;2024-01-30T09:46:16;12.75;;;10.10;;
38717;SDS011;24468;52.128;9.278;2024-01-30T09:48:46;12.25;;;9.05;;
38717;SDS011;24468;52.128;9.278;2024-01-30T09:51:14;14.25;;;9.45;;
38717;SDS011;24468;52.128;9.278;2024-01-30T09:53:42;16.85;;;11.20;;
38717;SDS011;24468;52.128;9.278;2024-01-30T09:56:09;11.25;;;9.68;;
38717;SDS011;24468;52.128;9.278;2024-01-30T09:58:34;12.13;;;9.13;;
38717;SDS011;24468;52.128;9.278;2024-01-30T10:01:00;11.32;;;9.20;;
38717;SDS011;24468;52.128;9.278;2024-01-30T10:03:25;15.23;;;9.73;;
38717;SDS011;24468;52.128;9.278;2024-01-30T10:05:52;13.25;;;8.93;;
38717;SDS011;24468;52.128;9.278;2024-01-30T10:08:18;13.48;;;9.05;;
38717;SDS011;24468;52.128;9.278;2024-01-30T10:10:45;14.07;;;9.52;;
38717;SDS011;24468;52.128;9.278;2024-01-30T10:13:12;12.48;;;8.90;;
38717;SDS011;24468;52.128;9.278;2024-01-30T10:15:37;11.88;;;8.45;;
38717;SDS011;24468;52.128;9.278;2024-01-30T10:18:04;13.80;;;9.63;;
38717;SDS011;24468;52.128;9.278;2024-01-30T10:20:33;11.90;;;9.18;;
38717;SDS011;24468;52.128;9.278;2024-01-30T10:22:59;15.40;;;9.65;;
38717;SDS011;24468;52.128;9.278;2024-01-30T10:25:28;13.15;;;8.45;;
38717;SDS011;24468;52.128;9.278;2024-01-30T10:27:53;12.68;;;8.80;;
38717;SDS011;24468;52.128;9.278;2024-01-30T10:30:20;13.10;;;9.13;;
38717;SDS011;24468;52.128;9.278;2024-01-30T10:32:46;11.80;;;9.70;;
38717;SDS011;24468;52.128;9.278;2024-01-30T10:35:12;12.48;;;9.50;;
38717;SDS011;24468;52.128;9.278;2024-01-30T10:37:38;10.35;;;8.85;;
38717;SDS011;24468;52.128;9.278;2024-01-30T10:40:04;12.85;;;8.80;;
38717;SDS011;24468;52.128;9.278;2024-01-30T10:42:31;11.63;;;8.45;;
38717;SDS011;24468;52.128;9.278;2024-01-30T10:47:46;13.38;;;9.20;;
38717;SDS011;24468;52.128;9.278;2024-01-30T10:50:15;12.52;;;9.43;;
38717;SDS011;24468;52.128;9.278;2024-01-30T10:52:42;16.30;;;9.52;;
38717;SDS011;24468;52.128;9.278;2024-01-30T10:55:08;13.63;;;8.48;;
38717;SDS011;24468;52.128;9.278;2024-01-30T10:57:35;11.43;;;8.68;;
38717;SDS011;24468;52.128;9.278;2024-01-30T11:00:02;12.07;;;8.35;;
38717;SDS011;24468;52.128;9.278;2024-01-30T11:02:40;10.32;;;8.32;;
38717;SDS011;24468;52.128;9.278;2024-01-30T11:05:08;11.90;;;8.80;;
38717;SDS011;24468;52.128;9.278;2024-01-30T11:07:34;11.57;;;8.82;;
38717;SDS011;24468;52.128;9.278;2024-01-30T11:10:01;11.57;;;8.82;;
38717;SDS011;24468;52.128;9.278;2024-01-30T11:12:32;10.38;;;7.63;;
38717;SDS011;24468;52.128;9.278;2024-01-30T11:17:42;11.95;;;7.95;;
38717;SDS011;24468;52.128;9.278;2024-01-30T11:20:25;11.27;;;8.32;;
38717;SDS011;24468;52.128;9.278;2024-01-30T11:22:56;13.27;;;8.90;;
38717;SDS011;24468;52.128;9.278;2024-01-30T11:25:23;11.88;;;8.60;;
38717;SDS011;24468;52.128;9.278;2024-01-30T11:27:50;11.45;;;8.43;;
38717;SDS011;24468;52.128;9.278;2024-01-30T11:30:21;30.17;;;15.80;;
38717;SDS011;24468;52.128;9.278;2024-01-30T11:33:02;50.55;;;23.52;;
38717;SDS011;24468;52.128;9.278;2024-01-30T11:35:36;33.72;;;14.77;;
38717;SDS011;24468;52.128;9.278;2024-01-30T11:38:04;12.10;;;8.43;;
38717;SDS011;24468;52.128;9.278;2024-01-30T11:40:32;9.45;;;7.75;;
38717;SDS011;24468;52.128;9.278;2024-01-30T11:43:00;10.98;;;8.35;;
38717;SDS011;24468;52.128;9.278;2024-01-30T11:45:27;10.27;;;8.82;;
38717;SDS011;24468;52.128;9.278;2024-01-30T11:47:53;11.57;;;8.18;;
38717;SDS011;24468;52.128;9.278;2024-01-30T11:50:20;10.20;;;7.65;;
38717;SDS011;24468;52.128;9.278;2024-01-30T11:52:45;9.55;;;7.68;;
38717;SDS011;24468;52.128;9.278;2024-01-30T11:55:12;14.20;;;8.48;;
38717;SDS011;24468;52.128;9.278;2024-01-30T11:57:39;9.38;;;7.70;;
38717;SDS011;24468;52.128;9.278;2024-01-30T12:00:05;11.10;;;7.18;;
38717;SDS011;24468;52.128;9.278;2024-01-30T12:02:38;13.15;;;7.55;;
38717;SDS011;24468;52.128;9.278;2024-01-30T12:05:05;10.73;;;7.55;;
38717;SDS011;24468;52.128;9.278;2024-01-30T12:07:32;12.07;;;7.55;;
38717;SDS011;24468;52.128;9.278;2024-01-30T12:09:58;14.52;;;8.18;;
38717;SDS011;24468;52.128;9.278;2024-01-30T12:12:25;10.60;;;6.88;;
38717;SDS011;24468;52.128;9.278;2024-01-30T12:14:51;13.07;;;7.55;;
38717;SDS011;24468;52.128;9.278;2024-01-30T12:20:29;14.85;;;7.53;;
38717;SDS011;24468;52.128;9.278;2024-01-30T12:22:48;14.98;;;6.65;;
38717;SDS011;24468;52.128;9.278;2024-01-30T12:25:16;12.65;;;8.43;;
38717;SDS011;24468;52.128;9.278;2024-01-30T12:27:46;7.90;;;6.97;;
38717;SDS011;24468;52.128;9.278;2024-01-30T12:30:17;8.95;;;6.75;;
38717;SDS011;24468;52.128;9.278;2024-01-30T12:32:45;13.90;;;7.50;;
38717;SDS011;24468;52.128;9.278;2024-01-30T12:35:16;14.85;;;8.40;;
38717;SDS011;24468;52.128;9.278;2024-01-30T12:37:44;11.68;;;9.40;;
38717;SDS011;24468;52.128;9.278;2024-01-30T12:40:10;10.07;;;7.65;;
38717;SDS011;24468;52.128;9.278;2024-01-30T12:42:39;13.05;;;8.60;;
38717;SDS011;24468;52.128;9.278;2024-01-30T12:45:11;9.98;;;7.40;;
38717;SDS011;24468;52.128;9.278;2024-01-30T12:47:36;12.63;;;8.68;;
38717;SDS011;24468;52.128;9.278;2024-01-30T12:50:02;12.45;;;6.78;;
38717;SDS011;24468;52.128;9.278;2024-01-30T12:52:28;10.52;;;7.50;;
38717;SDS011;24468;52.128;9.278;2024-01-30T12:54:54;14.35;;;10.23;;
38717;SDS011;24468;52.128;9.278;2024-01-30T12:57:19;11.02;;;7.72;;
38717;SDS011;24468;52.128;9.278;2024-01-30T12:59:45;13.52;;;9.02;;
38717;SDS011;24468;52.128;9.278;2024-01-30T13:02:12;8.80;;;7.22;;
38717;SDS011;24468;52.128;9.278;2024-01-30T13:04:38;14.35;;;7.22;;
38717;SDS011;24468;52.128;9.278;2024-01-30T13:07:04;11.75;;;6.95;;
38717;SDS011;24468;52.128;9.278;2024-01-30T13:09:30;11.38;;;9.25;;
38717;SDS011;24468;52.128;9.278;2024-01-30T13:11:59;19.42;;;14.00;;
38717;SDS011;24468;52.128;9.278;2024-01-30T13:14:27;19.85;;;13.80;;
38717;SDS011;24468;52.128;9.278;2024-01-30T13:16:53;22.77;;;14.20;;
38717;SDS011;24468;52.128;9.278;2024-01-30T13:19:18;17.23;;;11.23;;
38717;SDS011;24468;52.128;9.278;2024-01-30T13:21:44;16.15;;;11.57;;
38717;SDS011;24468;52.128;9.278;2024-01-30T13:24:10;14.18;;;10.95;;
38717;SDS011;24468;52.128;9.278;2024-01-30T13:26:35;13.13;;;9.45;;
38717;SDS011;24468;52.128;9.278;2024-01-30T13:29:01;13.75;;;9.20;;
38717;SDS011;24468;52.128;9.278;2024-01-30T13:31:27;11.23;;;8.45;;
38717;SDS011;24468;52.128;9.278;2024-01-30T13:33:56;16.13;;;11.70;;
38717;SDS011;24468;52.128;9.278;2024-01-30T13:36:22;37.35;;;22.63;;
38717;SDS011;24468;52.128;9.278;2024-01-30T13:38:47;21.58;;;14.70;;
38717;SDS011;24468;52.128;9.278;2024-01-30T13:41:13;12.57;;;8.57;;
38717;SDS011;24468;52.128;9.278;2024-01-30T13:43:43;16.45;;;10.73;;
38717;SDS011;24468;52.128;9.278;2024-01-30T13:46:09;20.17;;;13.77;;
38717;SDS011;24468;52.128;9.278;2024-01-30T13:48:35;21.95;;;15.02;;
38717;SDS011;24468;52.128;9.278;2024-01-30T13:51:01;23.08;;;14.35;;
38717;SDS011;24468;52.128;9.278;2024-01-30T13:53:26;22.30;;;12.43;;
38717;SDS011;24468;52.128;9.278;2024-01-30T13:55:52;17.65;;;11.25;;
38717;SDS011;24468;52.128;9.278;2024-01-30T13:58:18;19.33;;;11.82;;
38717;SDS011;24468;52.128;9.278;2024-01-30T14:00:43;15.70;;;8.32;;
38717;SDS011;24468;52.128;9.278;2024-01-30T14:03:09;18.70;;;9.82;;
38717;SDS011;24468;52.128;9.278;2024-01-30T14:05:34;20.38;;;8.88;;
38717;SDS011;24468;52.128;9.278;2024-01-30T14:08:00;10.10;;;7.32;;
38717;SDS011;24468;52.128;9.278;2024-01-30T14:10:26;10.88;;;7.20;;
38717;SDS011;24468;52.128;9.278;2024-01-30T14:12:52;10.60;;;6.65;;
38717;SDS011;24468;52.128;9.278;2024-01-30T14:15:17;9.77;;;7.57;;
38717;SDS011;24468;52.128;9.278;2024-01-30T14:17:43;18.05;;;9.02;;
38717;SDS011;24468;52.128;9.278;2024-01-30T14:20:14;11.32;;;7.45;;
38717;SDS011;24468;52.128;9.278;2024-01-30T14:22:42;11.15;;;7.55;;
38717;SDS011;24468;52.128;9.278;2024-01-30T14:25:08;10.98;;;7.15;;
38717;SDS011;24468;52.128;9.278;2024-01-30T14:27:34;10.75;;;7.40;;
38717;SDS011;24468;52.128;9.278;2024-01-30T14:30:00;10.95;;;7.47;;
38717;SDS011;24468;52.128;9.278;2024-01-30T14:32:26;12.85;;;7.68;;
38717;SDS011;24468;52.128;9.278;2024-01-30T14:34:52;8.80;;;7.47;;
38717;SDS011;24468;52.128;9.278;2024-01-30T14:37:17;8.95;;;6.90;;